sensor_id;sensor_type;location;lat;lon;timestamp;temperature;humidity
13375;DHT22;6756;51.354;15.754;2022-11-15T00:01:55;-0.80;99.90
13375;DHT22;6756;51.354;15.754;2022-11-15T00:06:01;-0.80;99.90
13375;DHT22;6756;51.354;15.754;2022-11-15T00:10:03;-0.90;99.90
13375;DHT22;6756;51.354;15.754;2022-11-15T00:14:03;-0.90;99.90
13375;DHT22;6756;51.354;15.754;2022-11-15T00:18:06;-1.00;99.90
13375;DHT22;6756;51.354;15.754;2022-11-15T00:22:06;-1.10;99.90
13375;DHT22;6756;51.354;15.754;2022-11-15T00:26:11;-1.10;99.90
13375;DHT22;6756;51.354;15.754;2022-11-15T00:30:12;-1.10;99.90
13375;DHT22;6756;51.354;15.754;2022-11-15T00:34:13;-1.10;99.90
13375;DHT22;6756;51.354;15.754;2022-11-15T00:38:14;-1.10;99.90
13375;DHT22;6756;51.354;15.754;2022-11-15T00:42:15;-1.10;99.90
13375;DHT22;6756;51.354;15.754;2022-11-15T00:46:15;-1.10;99.90
13375;DHT22;6756;51.354;15.754;2022-11-15T00:50:17;-1.10;99.90
13375;DHT22;6756;51.354;15.754;2022-11-15T00:54:18;-1.10;99.90
13375;DHT22;6756;51.354;15.754;2022-11-15T00:58:18;-1.10;99.90
13375;DHT22;6756;51.354;15.754;2022-11-15T01:02:19;-1.10;99.90
13375;DHT22;6756;51.354;15.754;2022-11-15T01:06:20;-1.10;99.90
13375;DHT22;6756;51.354;15.754;2022-11-15T01:10:22;-1.10;99.90
13375;DHT22;6756;51.354;15.754;2022-11-15T01:14:22;-1.00;99.90
13375;DHT22;6756;51.354;15.754;2022-11-15T01:18:23;-1.10;99.90
13375;DHT22;6756;51.354;15.754;2022-11-15T01:22:24;-1.20;99.90
13375;DHT22;6756;51.354;15.754;2022-11-15T01:26:25;-1.20;99.90
13375;DHT22;6756;51.354;15.754;2022-11-15T01:30:26;-1.20;99.90
13375;DHT22;6756;51.354;15.754;2022-11-15T01:34:26;-1.20;99.90
13375;DHT22;6756;51.354;15.754;2022-11-15T01:38:27;-1.20;99.90
13375;DHT22;6756;51.354;15.754;2022-11-15T01:42:28;-1.20;99.90
13375;DHT22;6756;51.354;15.754;2022-11-15T01:46:35;-1.20;99.90
13375;DHT22;6756;51.354;15.754;2022-11-15T01:50:38;-1.30;99.90
13375;DHT22;6756;51.354;15.754;2022-11-15T01:54:39;-1.20;99.90
13375;DHT22;6756;51.354;15.754;2022-11-15T01:58:40;-1.20;99.90
13375;DHT22;6756;51.354;15.754;2022-11-15T02:02:42;-1.10;99.90
13375;DHT22;6756;51.354;15.754;2022-11-15T02:06:43;-1.10;99.90
13375;DHT22;6756;51.354;15.754;2022-11-15T02:10:44;-1.20;99.90
13375;DHT22;6756;51.354;15.754;2022-11-15T02:14:48;-1.10;99.90
13375;DHT22;6756;51.354;15.754;2022-11-15T02:19:29;-1.00;99.90
13375;DHT22;6756;51.354;15.754;2022-11-15T02:32:13;-1.10;99.90
13375;DHT22;6756;51.354;15.754;2022-11-15T02:36:43;-1.20;99.90
13375;DHT22;6756;51.354;15.754;2022-11-15T02:41:07;-1.20;99.90
13375;DHT22;6756;51.354;15.754;2022-11-15T02:45:13;-1.20;99.90
13375;DHT22;6756;51.354;15.754;2022-11-15T02:49:15;-1.30;99.90
13375;DHT22;6756;51.354;15.754;2022-11-15T02:53:16;-1.20;99.90
13375;DHT22;6756;51.354;15.754;2022-11-15T02:57:19;-1.10;99.90
13375;DHT22;6756;51.354;15.754;2022-11-15T03:06:18;-1.00;99.90
13375;DHT22;6756;51.354;15.754;2022-11-15T03:10:31;-1.00;99.90
13375;DHT22;6756;51.354;15.754;2022-11-15T03:14:37;-1.10;99.90
13375;DHT22;6756;51.354;15.754;2022-11-15T03:18:42;-1.10;99.90
13375;DHT22;6756;51.354;15.754;2022-11-15T03:22:45;-1.20;99.90
13375;DHT22;6756;51.354;15.754;2022-11-15T03:26:48;-1.30;99.90
13375;DHT22;6756;51.354;15.754;2022-11-15T03:30:51;-1.30;99.90
13375;DHT22;6756;51.354;15.754;2022-11-15T03:34:57;-1.30;99.90
13375;DHT22;6756;51.354;15.754;2022-11-15T03:39:05;-1.20;99.90
13375;DHT22;6756;51.354;15.754;2022-11-15T03:43:22;-1.30;99.90
13375;DHT22;6756;51.354;15.754;2022-11-15T03:51:59;-1.30;99.90
13375;DHT22;6756;51.354;15.754;2022-11-15T03:56:00;-1.30;99.90
13375;DHT22;6756;51.354;15.754;2022-11-15T04:00:04;-1.30;99.90
13375;DHT22;6756;51.354;15.754;2022-11-15T04:04:04;-1.30;99.90
13375;DHT22;6756;51.354;15.754;2022-11-15T04:08:05;-1.40;99.90
13375;DHT22;6756;51.354;15.754;2022-11-15T04:12:06;-1.40;99.90
13375;DHT22;6756;51.354;15.754;2022-11-15T04:16:07;-1.50;99.90
13375;DHT22;6756;51.354;15.754;2022-11-15T04:20:14;-1.50;99.90
13375;DHT22;6756;51.354;15.754;2022-11-15T04:24:33;-1.50;99.90
13375;DHT22;6756;51.354;15.754;2022-11-15T04:28:34;-1.50;99.90
13375;DHT22;6756;51.354;15.754;2022-11-15T04:32:35;-1.50;99.90
13375;DHT22;6756;51.354;15.754;2022-11-15T04:36:36;-1.60;99.90
13375;DHT22;6756;51.354;15.754;2022-11-15T04:40:55;-1.50;99.90
13375;DHT22;6756;51.354;15.754;2022-11-15T04:44:56;-1.50;99.90
13375;DHT22;6756;51.354;15.754;2022-11-15T04:48:56;-1.50;99.90
13375;DHT22;6756;51.354;15.754;2022-11-15T04:52:57;-1.50;99.90
13375;DHT22;6756;51.354;15.754;2022-11-15T04:56:58;-1.50;99.90
13375;DHT22;6756;51.354;15.754;2022-11-15T05:01:13;-1.60;99.90
13375;DHT22;6756;51.354;15.754;2022-11-15T05:05:17;-1.50;99.90
13375;DHT22;6756;51.354;15.754;2022-11-15T05:09:19;-1.50;99.90
13375;DHT22;6756;51.354;15.754;2022-11-15T05:13:20;-1.50;99.90
13375;DHT22;6756;51.354;15.754;2022-11-15T05:17:21;-1.60;99.90
13375;DHT22;6756;51.354;15.754;2022-11-15T05:21:22;-1.60;99.90
13375;DHT22;6756;51.354;15.754;2022-11-15T05:25:23;-1.60;99.90
13375;DHT22;6756;51.354;15.754;2022-11-15T05:29:24;-1.70;99.90
13375;DHT22;6756;51.354;15.754;2022-11-15T05:33:24;-1.60;99.90
13375;DHT22;6756;51.354;15.754;2022-11-15T05:37:25;-1.60;99.90
13375;DHT22;6756;51.354;15.754;2022-11-15T05:41:36;-1.60;99.90
13375;DHT22;6756;51.354;15.754;2022-11-15T05:45:37;-1.70;99.90
13375;DHT22;6756;51.354;15.754;2022-11-15T05:49:40;-1.70;99.90
13375;DHT22;6756;51.354;15.754;2022-11-15T05:53:43;-1.70;99.90
13375;DHT22;6756;51.354;15.754;2022-11-15T05:57:45;-1.80;99.90
13375;DHT22;6756;51.354;15.754;2022-11-15T06:01:45;-1.70;99.90
13375;DHT22;6756;51.354;15.754;2022-11-15T06:05:46;-1.60;99.90
13375;DHT22;6756;51.354;15.754;2022-11-15T06:09:47;-1.50;99.90
13375;DHT22;6756;51.354;15.754;2022-11-15T06:13:48;-1.50;99.90
13375;DHT22;6756;51.354;15.754;2022-11-15T06:17:48;-1.50;99.90
13375;DHT22;6756;51.354;15.754;2022-11-15T06:21:49;-1.50;99.90
13375;DHT22;6756;51.354;15.754;2022-11-15T06:25:50;-1.50;99.90
13375;DHT22;6756;51.354;15.754;2022-11-15T06:29:51;-1.50;99.90
13375;DHT22;6756;51.354;15.754;2022-11-15T06:33:51;-1.50;99.90
13375;DHT22;6756;51.354;15.754;2022-11-15T06:37:52;-1.50;99.90
13375;DHT22;6756;51.354;15.754;2022-11-15T06:41:53;-1.40;99.90
13375;DHT22;6756;51.354;15.754;2022-11-15T06:45:54;-1.40;99.90
13375;DHT22;6756;51.354;15.754;2022-11-15T06:49:55;-1.30;99.90
13375;DHT22;6756;51.354;15.754;2022-11-15T06:53:55;-1.30;99.90
13375;DHT22;6756;51.354;15.754;2022-11-15T06:57:56;-1.20;99.90
13375;DHT22;6756;51.354;15.754;2022-11-15T07:01:57;-1.00;99.90
13375;DHT22;6756;51.354;15.754;2022-11-15T07:05:58;-0.90;99.90
13375;DHT22;6756;51.354;15.754;2022-11-15T07:09:59;-0.80;99.90
13375;DHT22;6756;51.354;15.754;2022-11-15T07:14:00;-0.70;99.90
13375;DHT22;6756;51.354;15.754;2022-11-15T07:18:02;-0.50;99.90
13375;DHT22;6756;51.354;15.754;2022-11-15T07:22:02;-0.40;99.90
13375;DHT22;6756;51.354;15.754;2022-11-15T07:26:03;-0.40;99.90
13375;DHT22;6756;51.354;15.754;2022-11-15T07:30:05;-0.20;99.90
13375;DHT22;6756;51.354;15.754;2022-11-15T07:34:06;-0.10;99.90
13375;DHT22;6756;51.354;15.754;2022-11-15T07:38:07;-0.10;99.90
13375;DHT22;6756;51.354;15.754;2022-11-15T07:42:07;0.00;99.90
13375;DHT22;6756;51.354;15.754;2022-11-15T07:46:26;0.20;99.90
13375;DHT22;6756;51.354;15.754;2022-11-15T07:50:27;0.50;99.90
13375;DHT22;6756;51.354;15.754;2022-11-15T07:54:31;0.80;99.90
13375;DHT22;6756;51.354;15.754;2022-11-15T07:58:32;1.00;99.90
13375;DHT22;6756;51.354;15.754;2022-11-15T08:02:33;1.20;99.90
13375;DHT22;6756;51.354;15.754;2022-11-15T08:06:33;1.50;99.90
13375;DHT22;6756;51.354;15.754;2022-11-15T08:10:35;1.70;99.90
13375;DHT22;6756;51.354;15.754;2022-11-15T08:14:36;2.00;99.90
13375;DHT22;6756;51.354;15.754;2022-11-15T08:18:37;2.20;99.90
13375;DHT22;6756;51.354;15.754;2022-11-15T08:22:37;2.10;99.90
13375;DHT22;6756;51.354;15.754;2022-11-15T08:26:38;2.30;99.90
13375;DHT22;6756;51.354;15.754;2022-11-15T08:30:42;2.60;99.90
13375;DHT22;6756;51.354;15.754;2022-11-15T08:34:43;2.80;99.90
13375;DHT22;6756;51.354;15.754;2022-11-15T08:38:44;3.00;99.90
13375;DHT22;6756;51.354;15.754;2022-11-15T08:42:48;3.20;99.90
13375;DHT22;6756;51.354;15.754;2022-11-15T08:46:49;3.30;99.90
13375;DHT22;6756;51.354;15.754;2022-11-15T08:50:54;3.60;99.90
13375;DHT22;6756;51.354;15.754;2022-11-15T08:54:55;3.80;99.90
13375;DHT22;6756;51.354;15.754;2022-11-15T08:58:56;3.90;99.90
13375;DHT22;6756;51.354;15.754;2022-11-15T09:02:57;4.20;99.90
13375;DHT22;6756;51.354;15.754;2022-11-15T09:06:58;4.40;99.90
13375;DHT22;6756;51.354;15.754;2022-11-15T09:11:03;4.70;99.90
13375;DHT22;6756;51.354;15.754;2022-11-15T09:15:05;4.90;99.90
13375;DHT22;6756;51.354;15.754;2022-11-15T09:19:06;5.20;99.90
13375;DHT22;6756;51.354;15.754;2022-11-15T09:23:07;5.50;99.90
13375;DHT22;6756;51.354;15.754;2022-11-15T09:27:08;5.80;99.90
13375;DHT22;6756;51.354;15.754;2022-11-15T09:31:09;6.10;99.90
13375;DHT22;6756;51.354;15.754;2022-11-15T09:35:10;6.40;99.90
13375;DHT22;6756;51.354;15.754;2022-11-15T09:39:11;6.60;99.90
13375;DHT22;6756;51.354;15.754;2022-11-15T09:43:24;6.80;99.90
13375;DHT22;6756;51.354;15.754;2022-11-15T09:51:39;7.40;99.90
13375;DHT22;6756;51.354;15.754;2022-11-15T09:56:02;7.80;99.90
13375;DHT22;6756;51.354;15.754;2022-11-15T10:00:12;8.20;99.90
13375;DHT22;6756;51.354;15.754;2022-11-15T10:04:14;8.50;99.90
13375;DHT22;6756;51.354;15.754;2022-11-15T10:12:48;9.00;99.90
13375;DHT22;6756;51.354;15.754;2022-11-15T10:21:20;9.50;99.90
13375;DHT22;6756;51.354;15.754;2022-11-15T10:25:22;9.70;99.90
13375;DHT22;6756;51.354;15.754;2022-11-15T10:29:24;10.00;99.90
13375;DHT22;6756;51.354;15.754;2022-11-15T10:33:35;10.20;99.90
13375;DHT22;6756;51.354;15.754;2022-11-15T10:37:36;10.40;99.90
13375;DHT22;6756;51.354;15.754;2022-11-15T10:41:39;10.60;99.90
13375;DHT22;6756;51.354;15.754;2022-11-15T10:45:40;10.90;99.90
13375;DHT22;6756;51.354;15.754;2022-11-15T10:49:54;11.10;99.90
13375;DHT22;6756;51.354;15.754;2022-11-15T10:54:00;11.40;99.90
13375;DHT22;6756;51.354;15.754;2022-11-15T11:02:45;11.80;99.90
13375;DHT22;6756;51.354;15.754;2022-11-15T11:06:56;12.00;99.90
13375;DHT22;6756;51.354;15.754;2022-11-15T11:10:59;12.20;1.00
13375;DHT22;6756;51.354;15.754;2022-11-15T11:15:05;12.40;1.00
13375;DHT22;6756;51.354;15.754;2022-11-15T11:19:31;12.50;1.00
13375;DHT22;6756;51.354;15.754;2022-11-15T11:32:26;12.80;99.90
13375;DHT22;6756;51.354;15.754;2022-11-15T11:36:39;12.90;99.90
13375;DHT22;6756;51.354;15.754;2022-11-15T11:40:51;12.90;99.90
13375;DHT22;6756;51.354;15.754;2022-11-15T11:49:20;13.10;99.90
13375;DHT22;6756;51.354;15.754;2022-11-15T11:58:14;13.20;99.90
13375;DHT22;6756;51.354;15.754;2022-11-15T12:02:24;13.30;99.90
13375;DHT22;6756;51.354;15.754;2022-11-15T12:06:30;13.30;99.90
13375;DHT22;6756;51.354;15.754;2022-11-15T12:10:33;13.40;99.90
13375;DHT22;6756;51.354;15.754;2022-11-15T12:14:55;13.50;99.90
13375;DHT22;6756;51.354;15.754;2022-11-15T12:19:02;13.50;99.90
13375;DHT22;6756;51.354;15.754;2022-11-15T12:35:42;13.60;99.90
13375;DHT22;6756;51.354;15.754;2022-11-15T12:48:50;13.70;99.90
13375;DHT22;6756;51.354;15.754;2022-11-15T12:57:40;13.80;99.90
13375;DHT22;6756;51.354;15.754;2022-11-15T13:13:44;13.80;99.90
13375;DHT22;6756;51.354;15.754;2022-11-15T13:17:53;13.80;99.90
13375;DHT22;6756;51.354;15.754;2022-11-15T13:21:54;13.80;99.90
13375;DHT22;6756;51.354;15.754;2022-11-15T13:26:14;13.80;99.90
13375;DHT22;6756;51.354;15.754;2022-11-15T13:30:27;13.90;99.90
13375;DHT22;6756;51.354;15.754;2022-11-15T13:34:33;13.90;99.90
13375;DHT22;6756;51.354;15.754;2022-11-15T13:38:38;13.90;99.90
13375;DHT22;6756;51.354;15.754;2022-11-15T13:42:38;13.80;1.00
13375;DHT22;6756;51.354;15.754;2022-11-15T13:46:39;13.60;1.00
13375;DHT22;6756;51.354;15.754;2022-11-15T13:50:40;13.50;1.00
13375;DHT22;6756;51.354;15.754;2022-11-15T13:54:51;13.40;1.00
13375;DHT22;6756;51.354;15.754;2022-11-15T13:58:53;13.20;90.40
13375;DHT22;6756;51.354;15.754;2022-11-15T14:02:56;13.10;99.90
13375;DHT22;6756;51.354;15.754;2022-11-15T14:06:58;12.90;99.90
13375;DHT22;6756;51.354;15.754;2022-11-15T14:23:32;11.90;1.00
13375;DHT22;6756;51.354;15.754;2022-11-15T14:27:33;11.70;25.30
13375;DHT22;6756;51.354;15.754;2022-11-15T14:31:34;11.50;99.90
13375;DHT22;6756;51.354;15.754;2022-11-15T14:35:38;11.30;99.90
13375;DHT22;6756;51.354;15.754;2022-11-15T14:39:39;11.00;99.90
13375;DHT22;6756;51.354;15.754;2022-11-15T14:43:40;10.80;1.00
13375;DHT22;6756;51.354;15.754;2022-11-15T14:47:41;10.50;1.00
13375;DHT22;6756;51.354;15.754;2022-11-15T14:51:42;10.30;99.90
13375;DHT22;6756;51.354;15.754;2022-11-15T14:55:43;10.00;99.90
13375;DHT22;6756;51.354;15.754;2022-11-15T14:59:44;9.80;1.00
13375;DHT22;6756;51.354;15.754;2022-11-15T15:03:45;9.50;99.90
13375;DHT22;6756;51.354;15.754;2022-11-15T15:07:47;9.30;1.00
13375;DHT22;6756;51.354;15.754;2022-11-15T15:11:47;9.00;99.90
13375;DHT22;6756;51.354;15.754;2022-11-15T15:15:49;8.80;1.00
13375;DHT22;6756;51.354;15.754;2022-11-15T15:19:50;8.50;99.90
13375;DHT22;6756;51.354;15.754;2022-11-15T15:23:52;8.30;1.00
13375;DHT22;6756;51.354;15.754;2022-11-15T15:27:56;8.20;99.90
13375;DHT22;6756;51.354;15.754;2022-11-15T15:31:57;8.00;99.90
13375;DHT22;6756;51.354;15.754;2022-11-15T15:35:58;7.80;1.00
13375;DHT22;6756;51.354;15.754;2022-11-15T15:39:59;7.60;99.90
13375;DHT22;6756;51.354;15.754;2022-11-15T15:44:00;7.50;93.00
13375;DHT22;6756;51.354;15.754;2022-11-15T15:48:01;7.30;1.00
13375;DHT22;6756;51.354;15.754;2022-11-15T15:52:01;7.10;99.90
13375;DHT22;6756;51.354;15.754;2022-11-15T15:56:02;7.00;1.00
13375;DHT22;6756;51.354;15.754;2022-11-15T16:00:04;6.80;99.90
13375;DHT22;6756;51.354;15.754;2022-11-15T16:04:05;6.70;99.90
13375;DHT22;6756;51.354;15.754;2022-11-15T16:08:18;6.60;1.00
13375;DHT22;6756;51.354;15.754;2022-11-15T16:12:19;6.40;1.00
13375;DHT22;6756;51.354;15.754;2022-11-15T16:16:21;6.40;1.00
13375;DHT22;6756;51.354;15.754;2022-11-15T16:20:35;6.30;99.90
13375;DHT22;6756;51.354;15.754;2022-11-15T16:24:36;6.20;99.90
13375;DHT22;6756;51.354;15.754;2022-11-15T16:28:37;6.10;99.90
13375;DHT22;6756;51.354;15.754;2022-11-15T16:32:38;6.00;99.90
13375;DHT22;6756;51.354;15.754;2022-11-15T16:36:38;5.90;99.90
13375;DHT22;6756;51.354;15.754;2022-11-15T16:40:39;5.80;99.90
13375;DHT22;6756;51.354;15.754;2022-11-15T16:44:40;5.70;99.90
13375;DHT22;6756;51.354;15.754;2022-11-15T16:48:41;5.60;99.90
13375;DHT22;6756;51.354;15.754;2022-11-15T16:52:42;5.50;99.90
13375;DHT22;6756;51.354;15.754;2022-11-15T16:56:43;5.30;99.90
13375;DHT22;6756;51.354;15.754;2022-11-15T17:00:44;5.20;99.90
13375;DHT22;6756;51.354;15.754;2022-11-15T17:04:45;5.10;99.90
13375;DHT22;6756;51.354;15.754;2022-11-15T17:08:46;5.00;99.90
13375;DHT22;6756;51.354;15.754;2022-11-15T17:12:48;4.90;99.90
13375;DHT22;6756;51.354;15.754;2022-11-15T17:16:49;4.80;99.90
13375;DHT22;6756;51.354;15.754;2022-11-15T17:20:50;4.80;99.90
13375;DHT22;6756;51.354;15.754;2022-11-15T17:24:51;4.70;99.90
13375;DHT22;6756;51.354;15.754;2022-11-15T17:28:55;4.70;99.90
13375;DHT22;6756;51.354;15.754;2022-11-15T17:33:01;4.60;99.90
13375;DHT22;6756;51.354;15.754;2022-11-15T17:37:01;4.50;99.90
13375;DHT22;6756;51.354;15.754;2022-11-15T17:41:13;4.40;99.90
13375;DHT22;6756;51.354;15.754;2022-11-15T17:45:14;4.20;99.90
13375;DHT22;6756;51.354;15.754;2022-11-15T17:49:18;4.10;99.90
13375;DHT22;6756;51.354;15.754;2022-11-15T17:53:19;4.00;99.90
13375;DHT22;6756;51.354;15.754;2022-11-15T17:57:20;3.90;99.90
13375;DHT22;6756;51.354;15.754;2022-11-15T18:01:22;3.80;99.90
13375;DHT22;6756;51.354;15.754;2022-11-15T18:05:23;3.80;99.90
13375;DHT22;6756;51.354;15.754;2022-11-15T18:09:24;3.80;99.90
13375;DHT22;6756;51.354;15.754;2022-11-15T18:13:25;3.70;99.90
13375;DHT22;6756;51.354;15.754;2022-11-15T18:17:26;3.60;99.90
13375;DHT22;6756;51.354;15.754;2022-11-15T18:21:29;3.60;99.90
13375;DHT22;6756;51.354;15.754;2022-11-15T18:25:30;3.50;99.90
13375;DHT22;6756;51.354;15.754;2022-11-15T18:29:31;3.50;99.90
13375;DHT22;6756;51.354;15.754;2022-11-15T18:33:34;3.50;99.90
13375;DHT22;6756;51.354;15.754;2022-11-15T18:37:34;3.50;99.90
13375;DHT22;6756;51.354;15.754;2022-11-15T18:41:35;3.40;99.90
13375;DHT22;6756;51.354;15.754;2022-11-15T18:45:36;3.40;99.90
13375;DHT22;6756;51.354;15.754;2022-11-15T18:49:37;3.30;99.90
13375;DHT22;6756;51.354;15.754;2022-11-15T18:53:38;3.30;99.90
13375;DHT22;6756;51.354;15.754;2022-11-15T18:57:40;3.40;99.90
13375;DHT22;6756;51.354;15.754;2022-11-15T19:01:44;3.40;99.90
13375;DHT22;6756;51.354;15.754;2022-11-15T19:05:49;3.20;99.90
13375;DHT22;6756;51.354;15.754;2022-11-15T19:09:50;3.20;99.90
13375;DHT22;6756;51.354;15.754;2022-11-15T19:13:55;2.80;99.90
13375;DHT22;6756;51.354;15.754;2022-11-15T19:17:56;2.60;99.90
13375;DHT22;6756;51.354;15.754;2022-11-15T19:21:57;2.60;99.90
13375;DHT22;6756;51.354;15.754;2022-11-15T19:25:59;2.50;99.90
13375;DHT22;6756;51.354;15.754;2022-11-15T19:30:01;2.50;99.90
13375;DHT22;6756;51.354;15.754;2022-11-15T19:34:03;2.40;99.90
13375;DHT22;6756;51.354;15.754;2022-11-15T19:38:04;2.40;99.90
13375;DHT22;6756;51.354;15.754;2022-11-15T19:42:05;2.30;99.90
13375;DHT22;6756;51.354;15.754;2022-11-15T19:46:08;2.30;99.90
13375;DHT22;6756;51.354;15.754;2022-11-15T19:50:09;2.30;99.90
13375;DHT22;6756;51.354;15.754;2022-11-15T19:54:10;2.30;99.90
13375;DHT22;6756;51.354;15.754;2022-11-15T19:58:12;2.30;99.90
13375;DHT22;6756;51.354;15.754;2022-11-15T20:02:13;2.30;99.90
13375;DHT22;6756;51.354;15.754;2022-11-15T20:06:22;2.30;99.90
13375;DHT22;6756;51.354;15.754;2022-11-15T20:10:23;2.20;99.90
13375;DHT22;6756;51.354;15.754;2022-11-15T20:14:24;2.10;99.90
13375;DHT22;6756;51.354;15.754;2022-11-15T20:18:26;2.00;99.90
13375;DHT22;6756;51.354;15.754;2022-11-15T20:22:27;1.90;99.90
13375;DHT22;6756;51.354;15.754;2022-11-15T20:26:29;1.70;99.90
13375;DHT22;6756;51.354;15.754;2022-11-15T20:30:32;1.50;99.90
13375;DHT22;6756;51.354;15.754;2022-11-15T20:34:33;1.60;99.90
13375;DHT22;6756;51.354;15.754;2022-11-15T20:38:34;1.60;99.90
13375;DHT22;6756;51.354;15.754;2022-11-15T20:42:35;1.60;99.90
13375;DHT22;6756;51.354;15.754;2022-11-15T20:46:36;1.70;99.90
13375;DHT22;6756;51.354;15.754;2022-11-15T20:50:36;1.70;99.90
13375;DHT22;6756;51.354;15.754;2022-11-15T20:54:37;1.80;99.90
13375;DHT22;6756;51.354;15.754;2022-11-15T20:58:38;1.80;99.90
13375;DHT22;6756;51.354;15.754;2022-11-15T21:02:39;1.80;99.90
13375;DHT22;6756;51.354;15.754;2022-11-15T21:06:40;1.80;99.90
13375;DHT22;6756;51.354;15.754;2022-11-15T21:10:40;1.90;99.90
13375;DHT22;6756;51.354;15.754;2022-11-15T21:15:00;1.90;99.90
13375;DHT22;6756;51.354;15.754;2022-11-15T21:19:00;1.90;99.90
13375;DHT22;6756;51.354;15.754;2022-11-15T21:23:01;2.00;99.90
13375;DHT22;6756;51.354;15.754;2022-11-15T21:27:03;2.00;99.90
13375;DHT22;6756;51.354;15.754;2022-11-15T21:31:04;2.00;99.90
13375;DHT22;6756;51.354;15.754;2022-11-15T21:35:05;2.00;99.90
13375;DHT22;6756;51.354;15.754;2022-11-15T21:39:06;2.00;99.90
13375;DHT22;6756;51.354;15.754;2022-11-15T21:43:07;1.90;99.90
13375;DHT22;6756;51.354;15.754;2022-11-15T21:47:08;1.90;99.90
13375;DHT22;6756;51.354;15.754;2022-11-15T21:51:10;1.90;99.90
13375;DHT22;6756;51.354;15.754;2022-11-15T21:55:11;1.90;99.90
13375;DHT22;6756;51.354;15.754;2022-11-15T21:59:12;1.80;99.90
13375;DHT22;6756;51.354;15.754;2022-11-15T22:03:13;1.70;99.90
13375;DHT22;6756;51.354;15.754;2022-11-15T22:07:14;1.70;99.90
13375;DHT22;6756;51.354;15.754;2022-11-15T22:11:15;1.60;99.90
13375;DHT22;6756;51.354;15.754;2022-11-15T22:15:16;1.60;99.90
13375;DHT22;6756;51.354;15.754;2022-11-15T22:19:17;1.50;99.90
13375;DHT22;6756;51.354;15.754;2022-11-15T22:23:18;1.50;99.90
13375;DHT22;6756;51.354;15.754;2022-11-15T22:27:18;1.50;99.90
13375;DHT22;6756;51.354;15.754;2022-11-15T22:31:19;1.50;99.90
13375;DHT22;6756;51.354;15.754;2022-11-15T22:35:20;1.50;99.90
13375;DHT22;6756;51.354;15.754;2022-11-15T22:39:21;1.60;99.90
13375;DHT22;6756;51.354;15.754;2022-11-15T22:43:23;1.60;99.90
13375;DHT22;6756;51.354;15.754;2022-11-15T22:47:25;1.70;99.90
13375;DHT22;6756;51.354;15.754;2022-11-15T22:51:25;1.80;99.90
13375;DHT22;6756;51.354;15.754;2022-11-15T22:55:26;1.90;99.90
13375;DHT22;6756;51.354;15.754;2022-11-15T22:59:27;2.00;99.90
13375;DHT22;6756;51.354;15.754;2022-11-15T23:03:29;2.00;99.90
13375;DHT22;6756;51.354;15.754;2022-11-15T23:07:31;2.10;99.90
13375;DHT22;6756;51.354;15.754;2022-11-15T23:11:33;2.10;99.90
13375;DHT22;6756;51.354;15.754;2022-11-15T23:16:01;2.10;99.90
13375;DHT22;6756;51.354;15.754;2022-11-15T23:20:21;2.10;99.90
13375;DHT22;6756;51.354;15.754;2022-11-15T23:24:22;2.10;99.90
13375;DHT22;6756;51.354;15.754;2022-11-15T23:28:23;2.10;99.90
13375;DHT22;6756;51.354;15.754;2022-11-15T23:32:24;2.20;99.90
13375;DHT22;6756;51.354;15.754;2022-11-15T23:36:43;2.20;99.90
13375;DHT22;6756;51.354;15.754;2022-11-15T23:40:52;2.30;99.90
13375;DHT22;6756;51.354;15.754;2022-11-15T23:44:53;2.30;99.90
13375;DHT22;6756;51.354;15.754;2022-11-15T23:48:54;2.40;99.90
13375;DHT22;6756;51.354;15.754;2022-11-15T23:52:55;2.50;99.90
13375;DHT22;6756;51.354;15.754;2022-11-15T23:56:56;2.50;99.90
